Time;durP1;ratioP1;P1;durP2;ratioP2;P2;SDS_P1;SDS_P2;PMS_P1;PMS_P2;Temp;Humidity;BMP_temperature;BMP_pressure;BME280_temperature;BME280_humidity;BME280_pressure;Samples;Min_cycle;Max_cycle;Signal;HPM_P1;HPM_P2
2021/12/05 12:46:50;;;;;;;14.77;9.63;;;5.90;99.90;;;;;;5101471;27;20443;-68
2021/12/05 12:49:16;;;;;;;17.27;10.80;;;6.00;99.90;;;;;;5107012;28;20294;-69
2021/12/05 12:52:00;;;;;;;15.40;9.77;;;6.00;99.90;;;;;;5105799;28;20039;-69
2021/12/05 12:54:52;;;;;;;15.97;9.17;;;6.10;99.90;;;;;;5106811;28;20071;-71
2021/12/05 12:57:26;;;;;;;14.52;9.55;;;6.20;99.90;;;;;;5105445;28;20796;-68
2021/12/05 12:59:57;;;;;;;16.20;8.07;;;6.30;99.90;;;;;;5105745;28;20032;-68
2021/12/05 13:11:06;;;;;;;14.20;8.93;;;6.50;99.90;;;;;;5105169;28;20492;-71
2021/12/05 13:13:43;;;;;;;11.50;7.30;;;6.60;99.90;;;;;;5105686;28;20446;-70
2021/12/05 13:16:17;;;;;;;11.67;7.87;;;6.60;99.90;;;;;;5106441;28;20092;-71
2021/12/05 13:18:46;;;;;;;16.80;8.10;;;6.60;99.90;;;;;;5106171;28;20040;-71
2021/12/05 13:21:28;;;;;;;13.60;7.67;;;6.60;99.90;;;;;;5103566;28;20073;-70
2021/12/05 13:23:55;;;;;;;12.50;7.57;;;6.70;99.90;;;;;;5104909;28;20065;-70
2021/12/05 13:26:39;;;;;;;13.07;8.03;;;6.70;99.90;;;;;;5104978;28;20059;-72
2021/12/05 13:29:28;;;;;;;13.57;7.33;;;6.70;99.90;;;;;;5104884;28;20104;-73
2021/12/05 13:32:24;;;;;;;11.13;7.30;;;6.70;99.90;;;;;;5105886;28;20036;-72
2021/12/05 13:34:54;;;;;;;12.20;7.70;;;6.80;99.90;;;;;;5103636;28;20483;-72
2021/12/05 13:37:30;;;;;;;12.33;7.57;;;6.90;99.90;;;;;;5104785;28;20052;-71
2021/12/05 13:40:08;;;;;;;14.90;6.90;;;6.90;99.90;;;;;;5104818;28;20099;-73
2021/12/05 13:42:41;;;;;;;10.57;6.60;;;7.00;99.90;;;;;;5104739;28;20048;-72
2021/12/05 13:45:17;;;;;;;11.80;6.97;;;7.00;99.90;;;;;;5105274;28;20063;-73
2021/12/05 13:47:51;;;;;;;15.97;6.70;;;7.00;99.90;;;;;;5105137;28;20043;-73
2021/12/05 13:50:27;;;;;;;11.88;7.35;;;7.00;99.90;;;;;;5105667;28;20127;-75
2021/12/05 13:53:03;;;;;;;10.33;6.93;;;6.90;99.90;;;;;;5104393;28;20445;-73
2021/12/05 13:55:49;;;;;;;15.87;8.00;;;6.90;99.90;;;;;;5104463;28;20158;-76
2021/12/05 13:58:18;;;;;;;11.90;7.47;;;6.90;99.90;;;;;;5089891;28;20032;-75
2021/12/05 14:00:51;;;;;;;11.90;6.90;;;6.80;99.90;;;;;;5090677;28;20467;-73
2021/12/05 14:03:38;;;;;;;12.73;6.97;;;6.90;99.90;;;;;;5090893;28;20040;-77
2021/12/05 14:06:22;;;;;;;15.47;6.53;;;6.90;99.90;;;;;;5060050;28;20058;-77
2021/12/05 14:08:47;;;;;;;11.77;7.23;;;6.90;99.90;;;;;;5091915;28;20056;-76
2021/12/05 14:11:13;;;;;;;12.00;7.03;;;7.00;99.90;;;;;;5091058;28;20097;-75
2021/12/05 14:13:38;;;;;;;13.33;7.13;;;7.00;99.90;;;;;;5089862;28;20079;-78
2021/12/05 14:16:04;;;;;;;14.27;7.67;;;7.00;99.90;;;;;;5089395;28;20040;-82
2021/12/05 14:18:30;;;;;;;9.90;6.77;;;6.90;99.90;;;;;;5089657;28;20040;-75
2021/12/05 14:21:09;;;;;;;11.37;7.50;;;6.90;99.90;;;;;;5090157;28;20059;-76
2021/12/05 14:23:34;;;;;;;8.93;6.20;;;6.90;99.90;;;;;;5089576;28;20080;-84
2021/12/05 14:26:15;;;;;;;10.80;7.13;;;6.90;99.90;;;;;;5092450;28;20102;-73
2021/12/05 14:28:41;;;;;;;12.13;7.40;;;7.00;99.90;;;;;;5090385;28;20048;-73
2021/12/05 14:31:06;;;;;;;12.23;7.23;;;7.00;99.90;;;;;;5088946;28;20118;-73
2021/12/05 14:33:47;;;;;;;12.47;7.20;;;7.00;99.90;;;;;;5090400;28;20444;-75
2021/12/05 14:36:31;;;;;;;14.73;7.20;;;7.00;99.90;;;;;;5090869;28;20492;-73
2021/12/05 14:39:08;;;;;;;15.97;7.50;;;6.90;99.90;;;;;;5087957;28;20535;-74
2021/12/05 14:41:34;;;;;;;11.93;7.63;;;6.90;99.90;;;;;;5090344;28;20132;-73
2021/12/05 14:43:59;;;;;;;13.67;7.20;;;6.90;99.90;;;;;;5090714;28;20040;-74
2021/12/05 14:46:26;;;;;;;13.97;7.03;;;6.80;99.90;;;;;;5089282;28;20518;-74
2021/12/05 14:48:59;;;;;;;11.57;7.03;;;6.80;99.90;;;;;;5088927;28;20047;-73
2021/12/05 14:51:40;;;;;;;12.33;8.80;;;6.80;99.90;;;;;;5087810;28;20039;-73
2021/12/05 14:54:07;;;;;;;20.08;11.73;;;6.80;99.90;;;;;;5089032;28;20098;-74
2021/12/05 14:56:35;;;;;;;11.10;8.13;;;6.70;99.90;;;;;;5090378;28;20454;-74
